Upton, Kentucky
Current Conditions -  °F | °C
As of 4:15 AM on Monday 24 Nov 2014 (Local Time) from KGLW Reporting Station
Overcast Overcast  
Wind Chill: 62°   Ceiling: 2500
Heat Index: 62°   Visibility: 10mi
Dew Point: 55°   Wind: 15mph
Humidity: 77%   Direction: 200°SSW
Pressure: 29.43"   Gusts: 28mph
Location:  37.46°N, 85.9°W
Report Text: KGLW 240915Z AUTO 20013G24KT 10SM OVC025 17/13 A2943 RMK AO2 T01650125
Loading
Personal Weather Stations






























Interactive Weather Map New forecast layout! Learn more

10-Day Weather Forecast

Advertisements
Track Severe Weather on mobile